sensor_id;sensor_type;location;lat;lon;timestamp;P1;durP1;ratioP1;P2;durP2;ratioP2
76023;SDS011;64719;52.124;6.226;2023-04-01T00:01:42;11.35;;;3.80;;
76023;SDS011;64719;52.124;6.226;2023-04-01T00:04:08;11.45;;;3.70;;
76023;SDS011;64719;52.124;6.226;2023-04-01T00:06:35;12.32;;;4.35;;
76023;SDS011;64719;52.124;6.226;2023-04-01T00:09:01;15.05;;;4.25;;
76023;SDS011;64719;52.124;6.226;2023-04-01T00:11:30;10.63;;;3.95;;
76023;SDS011;64719;52.124;6.226;2023-04-01T00:13:56;10.50;;;4.20;;
76023;SDS011;64719;52.124;6.226;2023-04-01T00:16:23;9.60;;;4.55;;
76023;SDS011;64719;52.124;6.226;2023-04-01T00:18:49;8.45;;;4.03;;
76023;SDS011;64719;52.124;6.226;2023-04-01T00:21:17;8.60;;;3.65;;
76023;SDS011;64719;52.124;6.226;2023-04-01T00:23:45;10.57;;;4.13;;
76023;SDS011;64719;52.124;6.226;2023-04-01T00:26:12;8.57;;;3.78;;
76023;SDS011;64719;52.124;6.226;2023-04-01T00:28:40;9.48;;;4.18;;
76023;SDS011;64719;52.124;6.226;2023-04-01T00:31:07;9.95;;;4.22;;
76023;SDS011;64719;52.124;6.226;2023-04-01T00:33:35;8.10;;;3.80;;
76023;SDS011;64719;52.124;6.226;2023-04-01T00:36:05;10.52;;;4.22;;
76023;SDS011;64719;52.124;6.226;2023-04-01T00:38:34;10.80;;;4.30;;
76023;SDS011;64719;52.124;6.226;2023-04-01T00:41:01;9.00;;;3.70;;
76023;SDS011;64719;52.124;6.226;2023-04-01T00:43:28;11.13;;;4.22;;
76023;SDS011;64719;52.124;6.226;2023-04-01T00:45:56;11.27;;;4.10;;
76023;SDS011;64719;52.124;6.226;2023-04-01T00:48:24;9.52;;;4.18;;
76023;SDS011;64719;52.124;6.226;2023-04-01T00:50:54;11.93;;;4.30;;
76023;SDS011;64719;52.124;6.226;2023-04-01T00:53:24;12.15;;;4.28;;
76023;SDS011;64719;52.124;6.226;2023-04-01T00:55:51;10.80;;;4.25;;
76023;SDS011;64719;52.124;6.226;2023-04-01T00:58:23;10.90;;;3.45;;
76023;SDS011;64719;52.124;6.226;2023-04-01T01:00:52;8.23;;;4.15;;
76023;SDS011;64719;52.124;6.226;2023-04-01T01:03:22;9.20;;;4.18;;
76023;SDS011;64719;52.124;6.226;2023-04-01T01:05:57;12.50;;;4.20;;
76023;SDS011;64719;52.124;6.226;2023-04-01T01:11:38;9.77;;;3.97;;
76023;SDS011;64719;52.124;6.226;2023-04-01T01:14:10;9.00;;;4.13;;
76023;SDS011;64719;52.124;6.226;2023-04-01T01:16:50;10.73;;;4.05;;
76023;SDS011;64719;52.124;6.226;2023-04-01T01:19:32;8.85;;;4.15;;
76023;SDS011;64719;52.124;6.226;2023-04-01T01:22:23;8.52;;;4.28;;
76023;SDS011;64719;52.124;6.226;2023-04-01T01:25:25;13.52;;;4.28;;
76023;SDS011;64719;52.124;6.226;2023-04-01T01:28:00;12.23;;;4.50;;
76023;SDS011;64719;52.124;6.226;2023-04-01T01:30:43;9.68;;;4.95;;
76023;SDS011;64719;52.124;6.226;2023-04-01T01:33:32;13.82;;;4.35;;
76023;SDS011;64719;52.124;6.226;2023-04-01T01:36:10;10.55;;;4.40;;
76023;SDS011;64719;52.124;6.226;2023-04-01T01:38:40;13.18;;;5.13;;
76023;SDS011;64719;52.124;6.226;2023-04-01T01:41:06;13.85;;;5.65;;
76023;SDS011;64719;52.124;6.226;2023-04-01T01:46:04;18.10;;;5.53;;
76023;SDS011;64719;52.124;6.226;2023-04-01T01:48:34;16.13;;;5.72;;
76023;SDS011;64719;52.124;6.226;2023-04-01T01:51:01;17.42;;;6.10;;
76023;SDS011;64719;52.124;6.226;2023-04-01T01:53:31;16.55;;;6.20;;
76023;SDS011;64719;52.124;6.226;2023-04-01T01:55:57;19.88;;;6.63;;
76023;SDS011;64719;52.124;6.226;2023-04-01T01:58:25;22.15;;;6.82;;
76023;SDS011;64719;52.124;6.226;2023-04-01T02:00:55;19.15;;;6.82;;
76023;SDS011;64719;52.124;6.226;2023-04-01T02:03:25;19.40;;;8.18;;
76023;SDS011;64719;52.124;6.226;2023-04-01T02:05:55;19.00;;;6.70;;
76023;SDS011;64719;52.124;6.226;2023-04-01T02:08:25;23.83;;;7.90;;
76023;SDS011;64719;52.124;6.226;2023-04-01T02:10:57;21.88;;;7.95;;
76023;SDS011;64719;52.124;6.226;2023-04-01T02:13:28;24.80;;;7.63;;
76023;SDS011;64719;52.124;6.226;2023-04-01T02:15:59;25.15;;;8.85;;
76023;SDS011;64719;52.124;6.226;2023-04-01T02:18:29;28.58;;;8.27;;
76023;SDS011;64719;52.124;6.226;2023-04-01T02:20:58;30.80;;;9.20;;
76023;SDS011;64719;52.124;6.226;2023-04-01T02:23:26;26.25;;;8.68;;
76023;SDS011;64719;52.124;6.226;2023-04-01T02:25:54;28.10;;;8.80;;
76023;SDS011;64719;52.124;6.226;2023-04-01T02:28:22;30.65;;;8.82;;
76023;SDS011;64719;52.124;6.226;2023-04-01T02:30:50;26.27;;;9.57;;
76023;SDS011;64719;52.124;6.226;2023-04-01T02:33:18;27.98;;;9.07;;
76023;SDS011;64719;52.124;6.226;2023-04-01T02:35:45;26.40;;;9.30;;
76023;SDS011;64719;52.124;6.226;2023-04-01T02:38:12;29.98;;;10.63;;
76023;SDS011;64719;52.124;6.226;2023-04-01T02:40:41;26.55;;;9.43;;
76023;SDS011;64719;52.124;6.226;2023-04-01T02:43:10;24.65;;;7.63;;
76023;SDS011;64719;52.124;6.226;2023-04-01T02:45:37;20.45;;;8.05;;
76023;SDS011;64719;52.124;6.226;2023-04-01T02:48:04;22.88;;;7.45;;
76023;SDS011;64719;52.124;6.226;2023-04-01T02:50:31;19.85;;;6.97;;
76023;SDS011;64719;52.124;6.226;2023-04-01T02:52:58;16.42;;;6.25;;
76023;SDS011;64719;52.124;6.226;2023-04-01T02:55:24;15.60;;;6.50;;
76023;SDS011;64719;52.124;6.226;2023-04-01T02:57:51;23.10;;;7.53;;
76023;SDS011;64719;52.124;6.226;2023-04-01T03:00:17;21.73;;;7.60;;
76023;SDS011;64719;52.124;6.226;2023-04-01T03:02:46;22.88;;;7.90;;
76023;SDS011;64719;52.124;6.226;2023-04-01T03:05:12;23.60;;;7.45;;
76023;SDS011;64719;52.124;6.226;2023-04-01T03:07:39;20.60;;;7.75;;
76023;SDS011;64719;52.124;6.226;2023-04-01T03:10:06;16.55;;;6.47;;
76023;SDS011;64719;52.124;6.226;2023-04-01T03:12:33;22.50;;;7.18;;
76023;SDS011;64719;52.124;6.226;2023-04-01T03:15:00;18.55;;;6.30;;
76023;SDS011;64719;52.124;6.226;2023-04-01T03:17:26;22.30;;;7.03;;
76023;SDS011;64719;52.124;6.226;2023-04-01T03:19:54;21.45;;;7.13;;
76023;SDS011;64719;52.124;6.226;2023-04-01T03:22:21;22.85;;;7.93;;
76023;SDS011;64719;52.124;6.226;2023-04-01T03:24:47;23.13;;;6.88;;
76023;SDS011;64719;52.124;6.226;2023-04-01T03:27:14;19.67;;;6.50;;
76023;SDS011;64719;52.124;6.226;2023-04-01T03:29:41;20.02;;;6.78;;
76023;SDS011;64719;52.124;6.226;2023-04-01T03:32:07;20.13;;;6.35;;
76023;SDS011;64719;52.124;6.226;2023-04-01T03:34:34;23.35;;;6.25;;
76023;SDS011;64719;52.124;6.226;2023-04-01T03:37:02;20.67;;;5.90;;
76023;SDS011;64719;52.124;6.226;2023-04-01T03:39:28;19.02;;;6.32;;
76023;SDS011;64719;52.124;6.226;2023-04-01T03:41:56;19.15;;;5.38;;
76023;SDS011;64719;52.124;6.226;2023-04-01T03:44:23;10.68;;;4.20;;
76023;SDS011;64719;52.124;6.226;2023-04-01T03:46:49;13.85;;;4.00;;
76023;SDS011;64719;52.124;6.226;2023-04-01T03:49:16;10.50;;;3.95;;
76023;SDS011;64719;52.124;6.226;2023-04-01T03:51:43;12.82;;;4.43;;
76023;SDS011;64719;52.124;6.226;2023-04-01T03:54:11;12.70;;;3.72;;
76023;SDS011;64719;52.124;6.226;2023-04-01T03:56:37;14.63;;;3.83;;
76023;SDS011;64719;52.124;6.226;2023-04-01T03:59:05;15.07;;;4.15;;
76023;SDS011;64719;52.124;6.226;2023-04-01T04:01:33;19.05;;;4.18;;
76023;SDS011;64719;52.124;6.226;2023-04-01T04:03:59;11.18;;;3.95;;
76023;SDS011;64719;52.124;6.226;2023-04-01T04:06:26;14.00;;;4.18;;
76023;SDS011;64719;52.124;6.226;2023-04-01T04:08:53;15.35;;;4.30;;
76023;SDS011;64719;52.124;6.226;2023-04-01T04:11:22;13.82;;;3.90;;
76023;SDS011;64719;52.124;6.226;2023-04-01T04:13:48;12.07;;;5.18;;
76023;SDS011;64719;52.124;6.226;2023-04-01T04:16:15;14.85;;;3.75;;
76023;SDS011;64719;52.124;6.226;2023-04-01T04:18:43;10.85;;;4.63;;
76023;SDS011;64719;52.124;6.226;2023-04-01T04:21:11;11.93;;;4.18;;
76023;SDS011;64719;52.124;6.226;2023-04-01T04:23:39;14.40;;;4.53;;
76023;SDS011;64719;52.124;6.226;2023-04-01T04:26:06;13.35;;;4.60;;
76023;SDS011;64719;52.124;6.226;2023-04-01T04:28:35;12.13;;;4.57;;
76023;SDS011;64719;52.124;6.226;2023-04-01T04:31:01;12.60;;;4.60;;
76023;SDS011;64719;52.124;6.226;2023-04-01T04:33:29;15.23;;;5.10;;
76023;SDS011;64719;52.124;6.226;2023-04-01T04:35:56;13.40;;;5.13;;
76023;SDS011;64719;52.124;6.226;2023-04-01T04:38:24;15.55;;;4.93;;
76023;SDS011;64719;52.124;6.226;2023-04-01T04:40:51;14.02;;;4.65;;
76023;SDS011;64719;52.124;6.226;2023-04-01T04:43:18;18.85;;;5.47;;
76023;SDS011;64719;52.124;6.226;2023-04-01T04:45:46;14.25;;;5.45;;
76023;SDS011;64719;52.124;6.226;2023-04-01T04:48:13;14.85;;;5.32;;
76023;SDS011;64719;52.124;6.226;2023-04-01T04:50:43;13.82;;;5.20;;
76023;SDS011;64719;52.124;6.226;2023-04-01T04:53:10;14.30;;;4.47;;
76023;SDS011;64719;52.124;6.226;2023-04-01T04:55:37;18.83;;;5.30;;
76023;SDS011;64719;52.124;6.226;2023-04-01T04:58:03;16.17;;;5.85;;
76023;SDS011;64719;52.124;6.226;2023-04-01T05:00:30;15.88;;;5.40;;
76023;SDS011;64719;52.124;6.226;2023-04-01T05:02:57;15.05;;;5.63;;
76023;SDS011;64719;52.124;6.226;2023-04-01T05:05:24;13.65;;;4.93;;
76023;SDS011;64719;52.124;6.226;2023-04-01T05:07:51;18.52;;;5.97;;
76023;SDS011;64719;52.124;6.226;2023-04-01T05:10:17;15.57;;;5.28;;
76023;SDS011;64719;52.124;6.226;2023-04-01T05:12:45;12.98;;;5.20;;
76023;SDS011;64719;52.124;6.226;2023-04-01T05:15:12;13.38;;;4.72;;
76023;SDS011;64719;52.124;6.226;2023-04-01T05:17:39;13.30;;;4.80;;
76023;SDS011;64719;52.124;6.226;2023-04-01T05:20:07;17.83;;;5.15;;
76023;SDS011;64719;52.124;6.226;2023-04-01T05:22:34;14.63;;;5.47;;
76023;SDS011;64719;52.124;6.226;2023-04-01T05:25:01;14.27;;;4.68;;
76023;SDS011;64719;52.124;6.226;2023-04-01T05:27:27;16.83;;;5.30;;
76023;SDS011;64719;52.124;6.226;2023-04-01T05:29:54;14.10;;;4.82;;
76023;SDS011;64719;52.124;6.226;2023-04-01T05:32:21;15.82;;;5.57;;
76023;SDS011;64719;52.124;6.226;2023-04-01T05:34:49;15.77;;;5.43;;
76023;SDS011;64719;52.124;6.226;2023-04-01T05:37:17;18.95;;;5.70;;
76023;SDS011;64719;52.124;6.226;2023-04-01T05:39:44;16.55;;;5.78;;
76023;SDS011;64719;52.124;6.226;2023-04-01T05:42:11;16.58;;;4.90;;
76023;SDS011;64719;52.124;6.226;2023-04-01T05:44:37;18.75;;;5.72;;
76023;SDS011;64719;52.124;6.226;2023-04-01T05:47:04;17.50;;;5.45;;
76023;SDS011;64719;52.124;6.226;2023-04-01T05:49:30;15.73;;;5.50;;
76023;SDS011;64719;52.124;6.226;2023-04-01T05:51:59;17.83;;;6.43;;
76023;SDS011;64719;52.124;6.226;2023-04-01T05:54:26;18.40;;;5.88;;
76023;SDS011;64719;52.124;6.226;2023-04-01T05:56:53;19.27;;;6.07;;
76023;SDS011;64719;52.124;6.226;2023-04-01T05:59:20;18.02;;;6.03;;
76023;SDS011;64719;52.124;6.226;2023-04-01T06:01:46;18.13;;;5.97;;
76023;SDS011;64719;52.124;6.226;2023-04-01T06:04:13;16.80;;;5.40;;
76023;SDS011;64719;52.124;6.226;2023-04-01T06:06:41;19.65;;;5.75;;
76023;SDS011;64719;52.124;6.226;2023-04-01T06:09:12;16.42;;;5.30;;
76023;SDS011;64719;52.124;6.226;2023-04-01T06:11:44;21.48;;;5.82;;
76023;SDS011;64719;52.124;6.226;2023-04-01T06:14:24;14.00;;;5.32;;
76023;SDS011;64719;52.124;6.226;2023-04-01T06:17:07;14.75;;;5.53;;
76023;SDS011;64719;52.124;6.226;2023-04-01T06:19:47;11.50;;;4.82;;
76023;SDS011;64719;52.124;6.226;2023-04-01T06:22:24;10.70;;;4.93;;
76023;SDS011;64719;52.124;6.226;2023-04-01T06:27:48;12.13;;;4.72;;
76023;SDS011;64719;52.124;6.226;2023-04-01T06:30:29;9.98;;;4.88;;
76023;SDS011;64719;52.124;6.226;2023-04-01T06:33:16;14.90;;;4.80;;
76023;SDS011;64719;52.124;6.226;2023-04-01T06:39:02;11.10;;;4.68;;
76023;SDS011;64719;52.124;6.226;2023-04-01T06:44:45;8.77;;;4.25;;
76023;SDS011;64719;52.124;6.226;2023-04-01T06:47:23;12.45;;;5.28;;
76023;SDS011;64719;52.124;6.226;2023-04-01T06:50:00;11.57;;;5.28;;
76023;SDS011;64719;52.124;6.226;2023-04-01T06:52:35;13.60;;;4.85;;
76023;SDS011;64719;52.124;6.226;2023-04-01T06:57:47;11.60;;;5.30;;
76023;SDS011;64719;52.124;6.226;2023-04-01T07:00:19;10.48;;;5.25;;
76023;SDS011;64719;52.124;6.226;2023-04-01T07:02:54;12.75;;;6.38;;
76023;SDS011;64719;52.124;6.226;2023-04-01T07:05:29;12.75;;;5.68;;
76023;SDS011;64719;52.124;6.226;2023-04-01T07:07:57;12.73;;;5.90;;
76023;SDS011;64719;52.124;6.226;2023-04-01T07:10:33;13.20;;;5.72;;
76023;SDS011;64719;52.124;6.226;2023-04-01T07:13:06;12.52;;;5.82;;
76023;SDS011;64719;52.124;6.226;2023-04-01T07:15:40;13.65;;;6.22;;
76023;SDS011;64719;52.124;6.226;2023-04-01T07:18:10;13.32;;;6.53;;
76023;SDS011;64719;52.124;6.226;2023-04-01T07:20:42;15.27;;;6.38;;
76023;SDS011;64719;52.124;6.226;2023-04-01T07:23:10;14.90;;;6.70;;
76023;SDS011;64719;52.124;6.226;2023-04-01T07:25:43;14.38;;;7.07;;
76023;SDS011;64719;52.124;6.226;2023-04-01T07:28:12;13.00;;;6.43;;
76023;SDS011;64719;52.124;6.226;2023-04-01T07:30:44;16.15;;;6.78;;
76023;SDS011;64719;52.124;6.226;2023-04-01T07:33:19;15.40;;;6.90;;
76023;SDS011;64719;52.124;6.226;2023-04-01T07:35:56;18.35;;;7.70;;
76023;SDS011;64719;52.124;6.226;2023-04-01T07:38:29;15.43;;;7.00;;
76023;SDS011;64719;52.124;6.226;2023-04-01T07:41:07;14.68;;;6.90;;
76023;SDS011;64719;52.124;6.226;2023-04-01T07:43:49;16.23;;;7.10;;
76023;SDS011;64719;52.124;6.226;2023-04-01T07:46:29;22.42;;;7.20;;
76023;SDS011;64719;52.124;6.226;2023-04-01T07:49:06;18.45;;;7.28;;
76023;SDS011;64719;52.124;6.226;2023-04-01T07:51:40;19.50;;;7.20;;
76023;SDS011;64719;52.124;6.226;2023-04-01T07:54:17;19.38;;;7.22;;
76023;SDS011;64719;52.124;6.226;2023-04-01T07:56:49;21.52;;;7.72;;
76023;SDS011;64719;52.124;6.226;2023-04-01T07:59:22;19.77;;;7.72;;
76023;SDS011;64719;52.124;6.226;2023-04-01T08:01:58;26.35;;;9.88;;
76023;SDS011;64719;52.124;6.226;2023-04-01T08:04:38;21.50;;;8.05;;
76023;SDS011;64719;52.124;6.226;2023-04-01T08:07:15;21.75;;;7.90;;
76023;SDS011;64719;52.124;6.226;2023-04-01T08:09:45;19.13;;;7.57;;
76023;SDS011;64719;52.124;6.226;2023-04-01T08:12:22;20.67;;;7.13;;
76023;SDS011;64719;52.124;6.226;2023-04-01T08:15:03;20.02;;;7.95;;
76023;SDS011;64719;52.124;6.226;2023-04-01T08:17:42;21.02;;;7.70;;
76023;SDS011;64719;52.124;6.226;2023-04-01T08:20:23;20.23;;;7.50;;
76023;SDS011;64719;52.124;6.226;2023-04-01T08:22:57;20.00;;;7.60;;
76023;SDS011;64719;52.124;6.226;2023-04-01T08:25:27;22.73;;;8.02;;
76023;SDS011;64719;52.124;6.226;2023-04-01T08:27:56;17.00;;;6.68;;
76023;SDS011;64719;52.124;6.226;2023-04-01T08:30:29;17.35;;;6.97;;
76023;SDS011;64719;52.124;6.226;2023-04-01T08:33:09;16.90;;;7.07;;
76023;SDS011;64719;52.124;6.226;2023-04-01T08:35:40;17.25;;;6.68;;
76023;SDS011;64719;52.124;6.226;2023-04-01T08:38:16;21.40;;;6.78;;
76023;SDS011;64719;52.124;6.226;2023-04-01T08:40:57;17.27;;;6.55;;
76023;SDS011;64719;52.124;6.226;2023-04-01T08:43:35;15.70;;;6.07;;
76023;SDS011;64719;52.124;6.226;2023-04-01T08:46:14;17.48;;;6.40;;
76023;SDS011;64719;52.124;6.226;2023-04-01T08:51:48;15.95;;;6.53;;
76023;SDS011;64719;52.124;6.226;2023-04-01T08:54:43;15.50;;;6.22;;
76023;SDS011;64719;52.124;6.226;2023-04-01T08:57:15;15.20;;;6.43;;
76023;SDS011;64719;52.124;6.226;2023-04-01T08:59:55;16.50;;;7.20;;
76023;SDS011;64719;52.124;6.226;2023-04-01T09:02:39;17.27;;;6.25;;
76023;SDS011;64719;52.124;6.226;2023-04-01T09:05:38;11.73;;;5.40;;
76023;SDS011;64719;52.124;6.226;2023-04-01T09:11:03;13.20;;;6.32;;
76023;SDS011;64719;52.124;6.226;2023-04-01T09:13:42;11.45;;;4.90;;
76023;SDS011;64719;52.124;6.226;2023-04-01T09:16:28;12.18;;;5.25;;
76023;SDS011;64719;52.124;6.226;2023-04-01T09:19:15;10.73;;;5.05;;
76023;SDS011;64719;52.124;6.226;2023-04-01T09:21:58;11.00;;;5.28;;
76023;SDS011;64719;52.124;6.226;2023-04-01T09:28:05;9.63;;;5.40;;
76023;SDS011;64719;52.124;6.226;2023-04-01T09:30:45;9.75;;;4.78;;
76023;SDS011;64719;52.124;6.226;2023-04-01T09:33:37;12.18;;;4.43;;
76023;SDS011;64719;52.124;6.226;2023-04-01T09:36:28;9.70;;;4.68;;
76023;SDS011;64719;52.124;6.226;2023-04-01T09:39:16;10.23;;;4.72;;
76023;SDS011;64719;52.124;6.226;2023-04-01T09:41:57;9.52;;;4.65;;
76023;SDS011;64719;52.124;6.226;2023-04-01T09:44:34;9.23;;;4.22;;
76023;SDS011;64719;52.124;6.226;2023-04-01T09:47:07;10.07;;;4.68;;
76023;SDS011;64719;52.124;6.226;2023-04-01T09:49:54;8.73;;;4.20;;
76023;SDS011;64719;52.124;6.226;2023-04-01T09:52:31;9.52;;;4.57;;
76023;SDS011;64719;52.124;6.226;2023-04-01T09:55:12;9.30;;;4.38;;
76023;SDS011;64719;52.124;6.226;2023-04-01T10:01:12;8.43;;;4.22;;
76023;SDS011;64719;52.124;6.226;2023-04-01T10:04:23;8.60;;;4.57;;
76023;SDS011;64719;52.124;6.226;2023-04-01T10:10:25;6.53;;;3.65;;
76023;SDS011;64719;52.124;6.226;2023-04-01T10:13:27;7.57;;;3.67;;
76023;SDS011;64719;52.124;6.226;2023-04-01T10:16:30;6.88;;;3.90;;
76023;SDS011;64719;52.124;6.226;2023-04-01T10:19:11;7.80;;;3.72;;
76023;SDS011;64719;52.124;6.226;2023-04-01T10:25:16;7.78;;;3.70;;
76023;SDS011;64719;52.124;6.226;2023-04-01T10:28:00;6.80;;;3.88;;
76023;SDS011;64719;52.124;6.226;2023-04-01T10:36:47;7.57;;;3.78;;
76023;SDS011;64719;52.124;6.226;2023-04-01T10:42:46;8.40;;;3.90;;
76023;SDS011;64719;52.124;6.226;2023-04-01T10:45:58;5.18;;;3.83;;
76023;SDS011;64719;52.124;6.226;2023-04-01T10:52:08;5.70;;;3.60;;
76023;SDS011;64719;52.124;6.226;2023-04-01T10:54:49;7.13;;;3.85;;
76023;SDS011;64719;52.124;6.226;2023-04-01T10:57:55;6.00;;;3.38;;
76023;SDS011;64719;52.124;6.226;2023-04-01T11:01:09;7.65;;;3.47;;
76023;SDS011;64719;52.124;6.226;2023-04-01T11:04:13;5.60;;;3.20;;
76023;SDS011;64719;52.124;6.226;2023-04-01T11:13:39;7.60;;;3.58;;
76023;SDS011;64719;52.124;6.226;2023-04-01T11:16:28;4.15;;;2.92;;
76023;SDS011;64719;52.124;6.226;2023-04-01T11:19:27;4.35;;;3.13;;
76023;SDS011;64719;52.124;6.226;2023-04-01T11:22:20;3.47;;;2.70;;
76023;SDS011;64719;52.124;6.226;2023-04-01T11:25:08;3.65;;;3.00;;
76023;SDS011;64719;52.124;6.226;2023-04-01T11:27:48;2.80;;;2.30;;
76023;SDS011;64719;52.124;6.226;2023-04-01T11:30:28;3.15;;;2.38;;
76023;SDS011;64719;52.124;6.226;2023-04-01T11:33:09;3.72;;;2.63;;
76023;SDS011;64719;52.124;6.226;2023-04-01T11:35:51;3.92;;;3.15;;
76023;SDS011;64719;52.124;6.226;2023-04-01T11:38:35;3.35;;;2.55;;
76023;SDS011;64719;52.124;6.226;2023-04-01T11:41:19;2.90;;;2.25;;
76023;SDS011;64719;52.124;6.226;2023-04-01T11:43:57;2.67;;;1.88;;
76023;SDS011;64719;52.124;6.226;2023-04-01T11:46:42;4.05;;;2.72;;
76023;SDS011;64719;52.124;6.226;2023-04-01T11:49:35;4.03;;;2.90;;
76023;SDS011;64719;52.124;6.226;2023-04-01T11:52:19;3.95;;;2.75;;
76023;SDS011;64719;52.124;6.226;2023-04-01T11:54:57;4.22;;;2.63;;
76023;SDS011;64719;52.124;6.226;2023-04-01T11:57:43;4.15;;;2.53;;
76023;SDS011;64719;52.124;6.226;2023-04-01T12:00:25;4.57;;;2.72;;
76023;SDS011;64719;52.124;6.226;2023-04-01T12:03:10;4.50;;;2.75;;
76023;SDS011;64719;52.124;6.226;2023-04-01T12:05:54;3.70;;;2.60;;
76023;SDS011;64719;52.124;6.226;2023-04-01T12:08:31;3.47;;;2.45;;
76023;SDS011;64719;52.124;6.226;2023-04-01T12:11:08;3.67;;;2.30;;
76023;SDS011;64719;52.124;6.226;2023-04-01T12:13:43;3.80;;;2.42;;
76023;SDS011;64719;52.124;6.226;2023-04-01T12:16:21;3.97;;;2.50;;
76023;SDS011;64719;52.124;6.226;2023-04-01T12:18:56;3.72;;;2.35;;
76023;SDS011;64719;52.124;6.226;2023-04-01T12:21:28;3.38;;;2.30;;
76023;SDS011;64719;52.124;6.226;2023-04-01T12:24:15;4.60;;;2.20;;
76023;SDS011;64719;52.124;6.226;2023-04-01T12:26:55;3.00;;;2.30;;
76023;SDS011;64719;52.124;6.226;2023-04-01T12:29:37;4.45;;;3.03;;
76023;SDS011;64719;52.124;6.226;2023-04-01T12:32:23;3.45;;;2.45;;
76023;SDS011;64719;52.124;6.226;2023-04-01T12:35:01;4.20;;;2.63;;
76023;SDS011;64719;52.124;6.226;2023-04-01T12:37:42;3.60;;;2.65;;
76023;SDS011;64719;52.124;6.226;2023-04-01T12:40:20;3.10;;;2.22;;
76023;SDS011;64719;52.124;6.226;2023-04-01T12:43:06;3.40;;;2.20;;
76023;SDS011;64719;52.124;6.226;2023-04-01T12:45:57;2.90;;;2.10;;
76023;SDS011;64719;52.124;6.226;2023-04-01T12:48:36;4.65;;;3.08;;
76023;SDS011;64719;52.124;6.226;2023-04-01T12:51:40;4.47;;;2.88;;
76023;SDS011;64719;52.124;6.226;2023-04-01T12:54:28;4.75;;;3.13;;
76023;SDS011;64719;52.124;6.226;2023-04-01T12:57:17;5.32;;;2.63;;
76023;SDS011;64719;52.124;6.226;2023-04-01T13:00:08;4.00;;;2.17;;
76023;SDS011;64719;52.124;6.226;2023-04-01T13:02:51;5.20;;;2.65;;
76023;SDS011;64719;52.124;6.226;2023-04-01T13:05:35;3.75;;;2.22;;
76023;SDS011;64719;52.124;6.226;2023-04-01T13:08:20;4.82;;;2.60;;
76023;SDS011;64719;52.124;6.226;2023-04-01T13:11:02;4.15;;;2.25;;
76023;SDS011;64719;52.124;6.226;2023-04-01T13:13:53;4.60;;;2.40;;
76023;SDS011;64719;52.124;6.226;2023-04-01T13:16:33;3.35;;;1.95;;
76023;SDS011;64719;52.124;6.226;2023-04-01T13:19:03;4.25;;;2.08;;
76023;SDS011;64719;52.124;6.226;2023-04-01T13:21:38;4.15;;;2.00;;
76023;SDS011;64719;52.124;6.226;2023-04-01T13:24:24;4.30;;;2.42;;
76023;SDS011;64719;52.124;6.226;2023-04-01T13:27:06;5.43;;;2.72;;
76023;SDS011;64719;52.124;6.226;2023-04-01T13:29:41;3.95;;;2.30;;
76023;SDS011;64719;52.124;6.226;2023-04-01T13:32:15;4.75;;;2.55;;
76023;SDS011;64719;52.124;6.226;2023-04-01T13:34:52;3.50;;;1.90;;
76023;SDS011;64719;52.124;6.226;2023-04-01T13:37:32;3.55;;;2.17;;
76023;SDS011;64719;52.124;6.226;2023-04-01T13:40:21;3.72;;;1.80;;
76023;SDS011;64719;52.124;6.226;2023-04-01T13:42:56;2.85;;;1.88;;
76023;SDS011;64719;52.124;6.226;2023-04-01T13:45:26;3.28;;;2.10;;
76023;SDS011;64719;52.124;6.226;2023-04-01T13:50:56;3.45;;;2.03;;
76023;SDS011;64719;52.124;6.226;2023-04-01T13:53:39;2.60;;;1.60;;
76023;SDS011;64719;52.124;6.226;2023-04-01T13:56:25;2.35;;;1.70;;
76023;SDS011;64719;52.124;6.226;2023-04-01T14:02:21;3.38;;;1.75;;
76023;SDS011;64719;52.124;6.226;2023-04-01T14:05:09;2.88;;;1.85;;
76023;SDS011;64719;52.124;6.226;2023-04-01T14:07:50;2.88;;;1.98;;
76023;SDS011;64719;52.124;6.226;2023-04-01T14:10:28;3.17;;;1.98;;
76023;SDS011;64719;52.124;6.226;2023-04-01T14:13:04;3.50;;;2.03;;
76023;SDS011;64719;52.124;6.226;2023-04-01T14:15:53;3.50;;;1.92;;
76023;SDS011;64719;52.124;6.226;2023-04-01T14:18:39;3.75;;;2.22;;
76023;SDS011;64719;52.124;6.226;2023-04-01T14:21:17;3.72;;;2.30;;
76023;SDS011;64719;52.124;6.226;2023-04-01T14:23:56;3.35;;;2.22;;
76023;SDS011;64719;52.124;6.226;2023-04-01T14:29:39;2.53;;;1.67;;
76023;SDS011;64719;52.124;6.226;2023-04-01T14:32:23;3.58;;;1.98;;
76023;SDS011;64719;52.124;6.226;2023-04-01T14:35:04;4.28;;;2.10;;
76023;SDS011;64719;52.124;6.226;2023-04-01T14:40:52;3.33;;;2.00;;
76023;SDS011;64719;52.124;6.226;2023-04-01T14:43:28;4.65;;;2.60;;
76023;SDS011;64719;52.124;6.226;2023-04-01T14:46:14;4.20;;;2.35;;
76023;SDS011;64719;52.124;6.226;2023-04-01T14:49:14;5.13;;;2.70;;
76023;SDS011;64719;52.124;6.226;2023-04-01T14:51:47;5.28;;;2.97;;
76023;SDS011;64719;52.124;6.226;2023-04-01T14:54:16;5.60;;;3.30;;
76023;SDS011;64719;52.124;6.226;2023-04-01T14:56:48;6.18;;;3.53;;
76023;SDS011;64719;52.124;6.226;2023-04-01T14:59:25;5.15;;;2.95;;
76023;SDS011;64719;52.124;6.226;2023-04-01T15:01:55;5.22;;;3.35;;
76023;SDS011;64719;52.124;6.226;2023-04-01T15:04:33;5.75;;;3.28;;
76023;SDS011;64719;52.124;6.226;2023-04-01T15:10:09;7.18;;;3.90;;
76023;SDS011;64719;52.124;6.226;2023-04-01T15:12:49;6.20;;;3.83;;
76023;SDS011;64719;52.124;6.226;2023-04-01T15:15:29;6.57;;;3.83;;
76023;SDS011;64719;52.124;6.226;2023-04-01T15:18:09;4.82;;;3.17;;
76023;SDS011;64719;52.124;6.226;2023-04-01T15:20:43;5.72;;;3.38;;
76023;SDS011;64719;52.124;6.226;2023-04-01T15:23:27;5.35;;;3.35;;
76023;SDS011;64719;52.124;6.226;2023-04-01T15:26:13;6.22;;;3.50;;
76023;SDS011;64719;52.124;6.226;2023-04-01T15:28:50;4.40;;;3.17;;
76023;SDS011;64719;52.124;6.226;2023-04-01T15:31:31;6.75;;;3.72;;
76023;SDS011;64719;52.124;6.226;2023-04-01T15:34:08;4.90;;;3.35;;
76023;SDS011;64719;52.124;6.226;2023-04-01T15:36:49;4.63;;;3.20;;
76023;SDS011;64719;52.124;6.226;2023-04-01T15:39:26;5.03;;;3.55;;
76023;SDS011;64719;52.124;6.226;2023-04-01T15:44:57;4.97;;;3.47;;
76023;SDS011;64719;52.124;6.226;2023-04-01T15:47:37;5.70;;;4.00;;
76023;SDS011;64719;52.124;6.226;2023-04-01T15:53:17;5.47;;;3.70;;
76023;SDS011;64719;52.124;6.226;2023-04-01T15:55:52;7.20;;;4.43;;
76023;SDS011;64719;52.124;6.226;2023-04-01T16:01:15;7.13;;;4.28;;
76023;SDS011;64719;52.124;6.226;2023-04-01T16:03:53;6.63;;;4.40;;
76023;SDS011;64719;52.124;6.226;2023-04-01T16:06:27;6.93;;;4.35;;
76023;SDS011;64719;52.124;6.226;2023-04-01T16:09:22;7.45;;;4.40;;
76023;SDS011;64719;52.124;6.226;2023-04-01T16:12:03;6.68;;;3.88;;
76023;SDS011;64719;52.124;6.226;2023-04-01T16:14:40;6.13;;;3.78;;
76023;SDS011;64719;52.124;6.226;2023-04-01T16:17:25;6.00;;;3.78;;
76023;SDS011;64719;52.124;6.226;2023-04-01T16:19:59;6.80;;;4.45;;
76023;SDS011;64719;52.124;6.226;2023-04-01T16:22:30;5.45;;;3.88;;
76023;SDS011;64719;52.124;6.226;2023-04-01T16:25:09;6.07;;;3.53;;
76023;SDS011;64719;52.124;6.226;2023-04-01T16:27:49;5.93;;;3.55;;
76023;SDS011;64719;52.124;6.226;2023-04-01T16:30:23;6.13;;;3.08;;
76023;SDS011;64719;52.124;6.226;2023-04-01T16:33:00;5.88;;;3.60;;
76023;SDS011;64719;52.124;6.226;2023-04-01T16:35:33;4.85;;;3.03;;
76023;SDS011;64719;52.124;6.226;2023-04-01T16:38:09;5.65;;;3.55;;
76023;SDS011;64719;52.124;6.226;2023-04-01T16:40:42;5.97;;;3.60;;
76023;SDS011;64719;52.124;6.226;2023-04-01T16:43:18;5.63;;;3.30;;
76023;SDS011;64719;52.124;6.226;2023-04-01T16:45:57;6.40;;;4.10;;
76023;SDS011;64719;52.124;6.226;2023-04-01T16:48:49;7.20;;;4.20;;
76023;SDS011;64719;52.124;6.226;2023-04-01T16:51:24;7.38;;;4.13;;